sensor_id;sensor_type;location;lat;lon;timestamp;temperature;humidity
66156;DHT22;52957;50.848;20.656;2022-07-29T00:00:22;23;74
66156;DHT22;52957;50.848;20.656;2022-07-29T00:07:20;23;74
66156;DHT22;52957;50.848;20.656;2022-07-29T00:14:17;23;74
66156;DHT22;52957;50.848;20.656;2022-07-29T00:21:16;23;74
66156;DHT22;52957;50.848;20.656;2022-07-29T00:28:18;23;74
66156;DHT22;52957;50.848;20.656;2022-07-29T00:42:06;25;84
66156;DHT22;52957;50.848;20.656;2022-07-29T00:49:19;25;84
66156;DHT22;52957;50.848;20.656;2022-07-29T00:56:05;25;84
66156;DHT22;52957;50.848;20.656;2022-07-29T01:00:27;25;84
66156;DHT22;52957;50.848;20.656;2022-07-29T01:07:05;25;86
66156;DHT22;52957;50.848;20.656;2022-07-29T01:14:26;25;86
66156;DHT22;52957;50.848;20.656;2022-07-29T01:35:34;23.89;88
66156;DHT22;52957;50.848;20.656;2022-07-29T01:42:49;23.89;88
66156;DHT22;52957;50.848;20.656;2022-07-29T01:56:06;23.89;88
66156;DHT22;52957;50.848;20.656;2022-07-29T02:00:08;23.89;88
66156;DHT22;52957;50.848;20.656;2022-07-29T02:07:32;25;85
66156;DHT22;52957;50.848;20.656;2022-07-29T02:14:07;25;85
66156;DHT22;52957;50.848;20.656;2022-07-29T02:21:35;25;85
66156;DHT22;52957;50.848;20.656;2022-07-29T02:28:05;25;85
66156;DHT22;52957;50.848;20.656;2022-07-29T02:35:08;25;87
66156;DHT22;52957;50.848;20.656;2022-07-29T02:42:31;25;87
66156;DHT22;52957;50.848;20.656;2022-07-29T02:56:24;25;87
66156;DHT22;52957;50.848;20.656;2022-07-29T03:00:29;25;87
66156;DHT22;52957;50.848;20.656;2022-07-29T03:07:05;24;87
66156;DHT22;52957;50.848;20.656;2022-07-29T03:14:28;24;87
66156;DHT22;52957;50.848;20.656;2022-07-29T03:21:08;24;87
66156;DHT22;52957;50.848;20.656;2022-07-29T03:28:02;24;87
66156;DHT22;52957;50.848;20.656;2022-07-29T03:35:20;24;85
66156;DHT22;52957;50.848;20.656;2022-07-29T03:42:42;24;85
66156;DHT22;52957;50.848;20.656;2022-07-29T03:49:40;24;85
66156;DHT22;52957;50.848;20.656;2022-07-29T03:56:25;24;85
66156;DHT22;52957;50.848;20.656;2022-07-29T04:00:09;24;85
66156;DHT22;52957;50.848;20.656;2022-07-29T04:07:26;23;88
66156;DHT22;52957;50.848;20.656;2022-07-29T04:14:02;23;88
66156;DHT22;52957;50.848;20.656;2022-07-29T04:21:29;23;88
66156;DHT22;52957;50.848;20.656;2022-07-29T04:28:14;23;88
66156;DHT22;52957;50.848;20.656;2022-07-29T04:35:09;24;86
66156;DHT22;52957;50.848;20.656;2022-07-29T04:42:04;24;86
66156;DHT22;52957;50.848;20.656;2022-07-29T04:49:05;24;86
66156;DHT22;52957;50.848;20.656;2022-07-29T04:56:04;24;86
66156;DHT22;52957;50.848;20.656;2022-07-29T05:00:01;24;86
66156;DHT22;52957;50.848;20.656;2022-07-29T05:07:18;24;87
66156;DHT22;52957;50.848;20.656;2022-07-29T05:14:03;24;87
66156;DHT22;52957;50.848;20.656;2022-07-29T05:21:17;24;87
66156;DHT22;52957;50.848;20.656;2022-07-29T05:28:03;24;87
66156;DHT22;52957;50.848;20.656;2022-07-29T05:35:04;24;87
66156;DHT22;52957;50.848;20.656;2022-07-29T05:42:09;24;87
66156;DHT22;52957;50.848;20.656;2022-07-29T05:49:19;24;87
66156;DHT22;52957;50.848;20.656;2022-07-29T05:56:14;24;87
66156;DHT22;52957;50.848;20.656;2022-07-29T06:00:09;24;87
66156;DHT22;52957;50.848;20.656;2022-07-29T06:14:02;23;88
66156;DHT22;52957;50.848;20.656;2022-07-29T06:21:07;23;88
66156;DHT22;52957;50.848;20.656;2022-07-29T06:28:03;23;88
66156;DHT22;52957;50.848;20.656;2022-07-29T06:42:05;23;89
66156;DHT22;52957;50.848;20.656;2022-07-29T06:49:25;23;89
66156;DHT22;52957;50.848;20.656;2022-07-29T06:56:14;23;89
66156;DHT22;52957;50.848;20.656;2022-07-29T07:00:11;23;89
66156;DHT22;52957;50.848;20.656;2022-07-29T07:14:14;23;89
66156;DHT22;52957;50.848;20.656;2022-07-29T07:21:07;23;89
66156;DHT22;52957;50.848;20.656;2022-07-29T07:28:05;23;89
66156;DHT22;52957;50.848;20.656;2022-07-29T07:42:04;23;90
66156;DHT22;52957;50.848;20.656;2022-07-29T07:49:19;23;90
66156;DHT22;52957;50.848;20.656;2022-07-29T07:56:07;23;90
66156;DHT22;52957;50.848;20.656;2022-07-29T08:14:05;23;90
66156;DHT22;52957;50.848;20.656;2022-07-29T08:21:17;23;90
66156;DHT22;52957;50.848;20.656;2022-07-29T08:28:06;23;90
66156;DHT22;52957;50.848;20.656;2022-07-29T08:35:17;23;90
66156;DHT22;52957;50.848;20.656;2022-07-29T08:42:14;23;90
66156;DHT22;52957;50.848;20.656;2022-07-29T08:49:20;23;90
66156;DHT22;52957;50.848;20.656;2022-07-29T08:56:22;23;90
66156;DHT22;52957;50.848;20.656;2022-07-29T09:00:09;23;90
66156;DHT22;52957;50.848;20.656;2022-07-29T09:14:07;23;91
66156;DHT22;52957;50.848;20.656;2022-07-29T09:28:08;23;91
66156;DHT22;52957;50.848;20.656;2022-07-29T09:35:34;23;91
66156;DHT22;52957;50.848;20.656;2022-07-29T09:42:27;23;91
66156;DHT22;52957;50.848;20.656;2022-07-29T09:49:23;23;91
66156;DHT22;52957;50.848;20.656;2022-07-29T09:56:06;23;91
66156;DHT22;52957;50.848;20.656;2022-07-29T10:00:19;23;91
66156;DHT22;52957;50.848;20.656;2022-07-29T10:14:19;23;90
66156;DHT22;52957;50.848;20.656;2022-07-29T10:21:16;23;90
66156;DHT22;52957;50.848;20.656;2022-07-29T10:28:17;23;90
66156;DHT22;52957;50.848;20.656;2022-07-29T10:35:44;23;90
66156;DHT22;52957;50.848;20.656;2022-07-29T10:42:25;23;90
66156;DHT22;52957;50.848;20.656;2022-07-29T10:49:55;23;90
66156;DHT22;52957;50.848;20.656;2022-07-29T10:56:35;23;90
66156;DHT22;52957;50.848;20.656;2022-07-29T11:00:36;23;90
66156;DHT22;52957;50.848;20.656;2022-07-29T11:07:27;23;90
66156;DHT22;52957;50.848;20.656;2022-07-29T11:14:18;22;91
66156;DHT22;52957;50.848;20.656;2022-07-29T11:21:38;22;91
66156;DHT22;52957;50.848;20.656;2022-07-29T11:28:54;22;91
66156;DHT22;52957;50.848;20.656;2022-07-29T11:35:36;22;91
66156;DHT22;52957;50.848;20.656;2022-07-29T11:42:54;23;91
66156;DHT22;52957;50.848;20.656;2022-07-29T11:49:19;23;91
66156;DHT22;52957;50.848;20.656;2022-07-29T11:56:32;23;91
66156;DHT22;52957;50.848;20.656;2022-07-29T12:00:38;23;91
66156;DHT22;52957;50.848;20.656;2022-07-29T12:07:17;23;91
66156;DHT22;52957;50.848;20.656;2022-07-29T12:14:02;23;92
66156;DHT22;52957;50.848;20.656;2022-07-29T12:21:04;23;92
66156;DHT22;52957;50.848;20.656;2022-07-29T12:28:15;23;92
66156;DHT22;52957;50.848;20.656;2022-07-29T12:35:12;23;92
66156;DHT22;52957;50.848;20.656;2022-07-29T12:42:11;24;89
66156;DHT22;52957;50.848;20.656;2022-07-29T12:49:04;24;89
66156;DHT22;52957;50.848;20.656;2022-07-29T12:56:04;24;89
66156;DHT22;52957;50.848;20.656;2022-07-29T13:00:29;24;89
66156;DHT22;52957;50.848;20.656;2022-07-29T13:07:13;24;89
66156;DHT22;52957;50.848;20.656;2022-07-29T13:14:45;25;84
66156;DHT22;52957;50.848;20.656;2022-07-29T13:21:29;25;84
66156;DHT22;52957;50.848;20.656;2022-07-29T13:28:17;25;84
66156;DHT22;52957;50.848;20.656;2022-07-29T13:35:11;25;84
66156;DHT22;52957;50.848;20.656;2022-07-29T13:49:19;24;72
66156;DHT22;52957;50.848;20.656;2022-07-29T13:56:03;24;72
66156;DHT22;52957;50.848;20.656;2022-07-29T14:00:08;24;72
66156;DHT22;52957;50.848;20.656;2022-07-29T14:07:17;24;72
66156;DHT22;52957;50.848;20.656;2022-07-29T14:21:17;25;68
66156;DHT22;52957;50.848;20.656;2022-07-29T14:28:18;25;68
66156;DHT22;52957;50.848;20.656;2022-07-29T14:35:18;25;68
66156;DHT22;52957;50.848;20.656;2022-07-29T14:49:19;25;68
66156;DHT22;52957;50.848;20.656;2022-07-29T14:56:06;25;68
66156;DHT22;52957;50.848;20.656;2022-07-29T15:00:12;25;68
66156;DHT22;52957;50.848;20.656;2022-07-29T15:07:05;25;68
66156;DHT22;52957;50.848;20.656;2022-07-29T15:21:03;23;73
66156;DHT22;52957;50.848;20.656;2022-07-29T15:28:08;23;73
66156;DHT22;52957;50.848;20.656;2022-07-29T15:35:14;23;73
66156;DHT22;52957;50.848;20.656;2022-07-29T15:49:18;23;73
66156;DHT22;52957;50.848;20.656;2022-07-29T15:56:04;23;73
66156;DHT22;52957;50.848;20.656;2022-07-29T16:00:13;23;73
66156;DHT22;52957;50.848;20.656;2022-07-29T16:07:05;23;73
66156;DHT22;52957;50.848;20.656;2022-07-29T16:21:04;23;71
66156;DHT22;52957;50.848;20.656;2022-07-29T16:28:07;23;71
66156;DHT22;52957;50.848;20.656;2022-07-29T16:35:09;23;71
66156;DHT22;52957;50.848;20.656;2022-07-29T16:49:18;23;71
66156;DHT22;52957;50.848;20.656;2022-07-29T16:56:09;23;71
66156;DHT22;52957;50.848;20.656;2022-07-29T17:00:24;23;71
66156;DHT22;52957;50.848;20.656;2022-07-29T17:07:15;23;71
66156;DHT22;52957;50.848;20.656;2022-07-29T17:21:05;23;70
66156;DHT22;52957;50.848;20.656;2022-07-29T17:28:18;23;70
66156;DHT22;52957;50.848;20.656;2022-07-29T17:49:19;23;70
66156;DHT22;52957;50.848;20.656;2022-07-29T17:56:05;23;70
66156;DHT22;52957;50.848;20.656;2022-07-29T18:00:04;23;70
66156;DHT22;52957;50.848;20.656;2022-07-29T18:07:03;23;70
66156;DHT22;52957;50.848;20.656;2022-07-29T18:21:07;23;69
66156;DHT22;52957;50.848;20.656;2022-07-29T18:28:20;23;69
66156;DHT22;52957;50.848;20.656;2022-07-29T18:35:08;23;69
66156;DHT22;52957;50.848;20.656;2022-07-29T18:42:03;23;69
66156;DHT22;52957;50.848;20.656;2022-07-29T18:49:25;25;85
66156;DHT22;52957;50.848;20.656;2022-07-29T18:56:04;25;85
66156;DHT22;52957;50.848;20.656;2022-07-29T19:00:04;25;85
66156;DHT22;52957;50.848;20.656;2022-07-29T19:07:13;25;85
66156;DHT22;52957;50.848;20.656;2022-07-29T19:21:18;25;85
66156;DHT22;52957;50.848;20.656;2022-07-29T19:28:04;25;85
66156;DHT22;52957;50.848;20.656;2022-07-29T19:35:35;25;85
66156;DHT22;52957;50.848;20.656;2022-07-29T19:42:05;25;85
66156;DHT22;52957;50.848;20.656;2022-07-29T19:49:06;25;85
66156;DHT22;52957;50.848;20.656;2022-07-29T19:56:19;25;85
66156;DHT22;52957;50.848;20.656;2022-07-29T20:00:25;25;85
66156;DHT22;52957;50.848;20.656;2022-07-29T20:07:02;25;85
66156;DHT22;52957;50.848;20.656;2022-07-29T20:21:18;25;84
66156;DHT22;52957;50.848;20.656;2022-07-29T20:28:13;25;84
66156;DHT22;52957;50.848;20.656;2022-07-29T20:35:04;25;84
66156;DHT22;52957;50.848;20.656;2022-07-29T20:42:19;25;84
66156;DHT22;52957;50.848;20.656;2022-07-29T20:49:02;25;85
66156;DHT22;52957;50.848;20.656;2022-07-29T20:56:17;25;85
66156;DHT22;52957;50.848;20.656;2022-07-29T21:00:11;25;85
66156;DHT22;52957;50.848;20.656;2022-07-29T21:07:07;25;85
66156;DHT22;52957;50.848;20.656;2022-07-29T21:14:13;25;85
66156;DHT22;52957;50.848;20.656;2022-07-29T21:21:06;25;85
66156;DHT22;52957;50.848;20.656;2022-07-29T21:35:04;25;85
66156;DHT22;52957;50.848;20.656;2022-07-29T21:42:21;25;85
66156;DHT22;52957;50.848;20.656;2022-07-29T21:49:21;25;85
66156;DHT22;52957;50.848;20.656;2022-07-29T21:56:03;25;85
66156;DHT22;52957;50.848;20.656;2022-07-29T22:00:18;25;85
66156;DHT22;52957;50.848;20.656;2022-07-29T22:07:14;25;85
66156;DHT22;52957;50.848;20.656;2022-07-29T22:14:06;26;85
66156;DHT22;52957;50.848;20.656;2022-07-29T22:21:12;26;85
66156;DHT22;52957;50.848;20.656;2022-07-29T22:28:06;26;85
66156;DHT22;52957;50.848;20.656;2022-07-29T22:35:09;26;85
66156;DHT22;52957;50.848;20.656;2022-07-29T22:42:17;26;85
66156;DHT22;52957;50.848;20.656;2022-07-29T22:49:20;26;85
66156;DHT22;52957;50.848;20.656;2022-07-29T22:56:05;26;85
66156;DHT22;52957;50.848;20.656;2022-07-29T23:07:03;26;84
66156;DHT22;52957;50.848;20.656;2022-07-29T23:14:02;26;84
66156;DHT22;52957;50.848;20.656;2022-07-29T23:21:04;26;84
66156;DHT22;52957;50.848;20.656;2022-07-29T23:28:02;26;84
66156;DHT22;52957;50.848;20.656;2022-07-29T23:35:06;23;69
66156;DHT22;52957;50.848;20.656;2022-07-29T23:42:02;23;69
66156;DHT22;52957;50.848;20.656;2022-07-29T23:49:17;23;69
66156;DHT22;52957;50.848;20.656;2022-07-29T23:56:02;23;69
